Quievrain, Belgium
Current Conditions -  °F | °C
As of 5:25 PM on Saturday 25 Oct 2014 (Local Time) from EBCV Reporting Station
Broken Clouds Broken Clouds  
Wind Chill: 57°   Ceiling: 4300
Heat Index: 57°   Visibility: 6mi
Dew Point: 48°   Wind: 3mph
Humidity: 72%   Direction: 310°NW
Pressure: 30.15"   Gusts: NA
Location:  50.41°N, 3.68°E
Report Text: EBCV 251525Z AUTO 31003KT 9999 BKN043/// 14/09 Q1021 BLU
Loading
Personal Weather Stations






























Interactive Weather Map
Tropical Storm Tracking
New forecast layout! Learn more

10-Day Weather Forecast

Advertisements
Track Severe Weather on mobile